sensor_id;sensor_type;location;lat;lon;timestamp;pressure;altitude;pressure_sealevel;temperature;humidity
81509;BME280;70930;52.412;13.554;2024-02-23T00:01:06;98072.28;;;9.73;100.00
81509;BME280;70930;52.412;13.554;2024-02-23T00:03:32;98066.41;;;9.71;100.00
81509;BME280;70930;52.412;13.554;2024-02-23T00:05:58;98066.88;;;9.68;100.00
81509;BME280;70930;52.412;13.554;2024-02-23T00:08:24;98071.75;;;9.59;100.00
81509;BME280;70930;52.412;13.554;2024-02-23T00:10:49;98073.00;;;9.57;100.00
81509;BME280;70930;52.412;13.554;2024-02-23T00:13:15;98062.84;;;9.66;100.00
81509;BME280;70930;52.412;13.554;2024-02-23T00:15:40;98066.13;;;9.56;100.00
81509;BME280;70930;52.412;13.554;2024-02-23T00:18:06;98061.38;;;9.58;100.00
81509;BME280;70930;52.412;13.554;2024-02-23T00:20:32;98071.84;;;9.65;100.00
81509;BME280;70930;52.412;13.554;2024-02-23T00:22:57;98069.56;;;9.56;100.00
81509;BME280;70930;52.412;13.554;2024-02-23T00:25:22;98065.75;;;9.64;100.00
81509;BME280;70930;52.412;13.554;2024-02-23T00:27:48;98062.06;;;9.65;100.00
81509;BME280;70930;52.412;13.554;2024-02-23T00:30:14;98063.00;;;9.59;100.00
81509;BME280;70930;52.412;13.554;2024-02-23T00:32:39;98068.75;;;9.56;100.00
81509;BME280;70930;52.412;13.554;2024-02-23T00:35:05;98055.84;;;9.59;100.00
81509;BME280;70930;52.412;13.554;2024-02-23T00:37:30;98067.59;;;9.64;100.00
81509;BME280;70930;52.412;13.554;2024-02-23T00:40:04;98068.63;;;9.63;100.00
81509;BME280;70930;52.412;13.554;2024-02-23T00:42:30;98064.81;;;9.58;100.00
81509;BME280;70930;52.412;13.554;2024-02-23T00:44:56;98068.63;;;9.63;100.00
81509;BME280;70930;52.412;13.554;2024-02-23T00:47:21;98077.94;;;9.65;100.00
81509;BME280;70930;52.412;13.554;2024-02-23T00:49:46;98072.56;;;9.60;100.00
81509;BME280;70930;52.412;13.554;2024-02-23T00:52:12;98069.81;;;9.55;100.00
81509;BME280;70930;52.412;13.554;2024-02-23T00:54:37;98068.09;;;9.49;100.00
81509;BME280;70930;52.412;13.554;2024-02-23T00:57:02;98068.50;;;9.57;100.00
81509;BME280;70930;52.412;13.554;2024-02-23T00:59:28;98063.91;;;9.65;99.51
81509;BME280;70930;52.412;13.554;2024-02-23T01:01:54;98066.44;;;9.59;99.39
81509;BME280;70930;52.412;13.554;2024-02-23T01:04:20;98076.81;;;9.61;99.36
81509;BME280;70930;52.412;13.554;2024-02-23T01:06:45;98076.09;;;9.66;98.66
81509;BME280;70930;52.412;13.554;2024-02-23T01:09:11;98070.34;;;9.69;98.34
81509;BME280;70930;52.412;13.554;2024-02-23T01:11:36;98075.28;;;9.65;98.19
81509;BME280;70930;52.412;13.554;2024-02-23T01:14:02;98085.78;;;9.72;97.32
81509;BME280;70930;52.412;13.554;2024-02-23T01:16:27;98080.56;;;9.77;96.22
81509;BME280;70930;52.412;13.554;2024-02-23T01:18:52;98095.38;;;9.90;94.58
81509;BME280;70930;52.412;13.554;2024-02-23T01:21:18;98100.94;;;9.88;94.32
81509;BME280;70930;52.412;13.554;2024-02-23T01:23:43;98096.88;;;9.97;93.34
81509;BME280;70930;52.412;13.554;2024-02-23T01:26:09;98115.53;;;10.02;91.59
81509;BME280;70930;52.412;13.554;2024-02-23T01:28:35;98117.56;;;10.12;91.15
81509;BME280;70930;52.412;13.554;2024-02-23T01:31:00;98112.84;;;10.14;90.16
81509;BME280;70930;52.412;13.554;2024-02-23T01:33:26;98122.59;;;10.25;89.41
81509;BME280;70930;52.412;13.554;2024-02-23T01:35:51;98129.63;;;10.31;88.46
81509;BME280;70930;52.412;13.554;2024-02-23T01:38:16;98131.81;;;10.35;87.61
81509;BME280;70930;52.412;13.554;2024-02-23T01:40:45;98137.94;;;10.35;87.61
81509;BME280;70930;52.412;13.554;2024-02-23T01:43:11;98146.94;;;10.34;87.62
81509;BME280;70930;52.412;13.554;2024-02-23T01:45:36;98156.81;;;10.39;86.86
81509;BME280;70930;52.412;13.554;2024-02-23T01:48:02;98158.44;;;10.40;86.39
81509;BME280;70930;52.412;13.554;2024-02-23T01:50:28;98155.31;;;10.43;85.78
81509;BME280;70930;52.412;13.554;2024-02-23T01:52:56;98168.75;;;10.53;84.29
81509;BME280;70930;52.412;13.554;2024-02-23T01:55:23;98188.03;;;10.48;83.11
81509;BME280;70930;52.412;13.554;2024-02-23T01:57:48;98173.75;;;10.49;82.58
81509;BME280;70930;52.412;13.554;2024-02-23T02:00:16;98194.25;;;10.54;83.26
81509;BME280;70930;52.412;13.554;2024-02-23T02:02:43;98200.84;;;10.51;83.12
81509;BME280;70930;52.412;13.554;2024-02-23T02:05:09;98222.88;;;10.52;83.39
81509;BME280;70930;52.412;13.554;2024-02-23T02:07:34;98232.28;;;10.60;82.49
81509;BME280;70930;52.412;13.554;2024-02-23T02:10:00;98242.25;;;10.52;80.91
81509;BME280;70930;52.412;13.554;2024-02-23T02:12:28;98265.19;;;10.59;80.40
81509;BME280;70930;52.412;13.554;2024-02-23T02:14:54;98273.50;;;10.62;79.92
81509;BME280;70930;52.412;13.554;2024-02-23T02:17:20;98274.53;;;10.61;79.87
81509;BME280;70930;52.412;13.554;2024-02-23T02:19:49;98280.91;;;10.48;74.80
81509;BME280;70930;52.412;13.554;2024-02-23T02:22:14;98297.50;;;10.55;72.85
81509;BME280;70930;52.412;13.554;2024-02-23T02:24:39;98311.03;;;10.42;66.64
81509;BME280;70930;52.412;13.554;2024-02-23T02:27:07;98323.38;;;10.25;61.67
81509;BME280;70930;52.412;13.554;2024-02-23T02:29:33;98332.34;;;10.12;61.03
81509;BME280;70930;52.412;13.554;2024-02-23T02:31:58;98358.16;;;10.05;60.69
81509;BME280;70930;52.412;13.554;2024-02-23T02:34:23;98357.16;;;9.94;59.42
81509;BME280;70930;52.412;13.554;2024-02-23T02:36:49;98361.16;;;9.85;59.93
81509;BME280;70930;52.412;13.554;2024-02-23T02:39:17;98355.16;;;9.78;59.64
81509;BME280;70930;52.412;13.554;2024-02-23T02:41:42;98376.00;;;9.74;61.07
81509;BME280;70930;52.412;13.554;2024-02-23T02:44:08;98370.13;;;9.72;60.31
81509;BME280;70930;52.412;13.554;2024-02-23T02:46:35;98371.72;;;9.73;60.77
81509;BME280;70930;52.412;13.554;2024-02-23T02:49:00;98373.66;;;9.66;60.92
81509;BME280;70930;52.412;13.554;2024-02-23T02:51:26;98367.44;;;9.61;60.09
81509;BME280;70930;52.412;13.554;2024-02-23T02:53:51;98374.25;;;9.56;61.47
81509;BME280;70930;52.412;13.554;2024-02-23T02:56:16;98379.53;;;9.56;60.98
81509;BME280;70930;52.412;13.554;2024-02-23T02:58:42;98394.03;;;9.54;60.68
81509;BME280;70930;52.412;13.554;2024-02-23T03:01:07;98401.41;;;9.52;61.02
81509;BME280;70930;52.412;13.554;2024-02-23T03:03:33;98416.72;;;9.50;61.37
81509;BME280;70930;52.412;13.554;2024-02-23T03:05:58;98406.78;;;9.45;59.47
81509;BME280;70930;52.412;13.554;2024-02-23T03:08:24;98422.44;;;9.47;60.17
81509;BME280;70930;52.412;13.554;2024-02-23T03:10:49;98428.00;;;9.45;58.53
81509;BME280;70930;52.412;13.554;2024-02-23T03:13:14;98426.75;;;9.48;59.06
81509;BME280;70930;52.412;13.554;2024-02-23T03:15:40;98434.09;;;9.46;59.28
81509;BME280;70930;52.412;13.554;2024-02-23T03:18:05;98432.72;;;9.43;59.26
81509;BME280;70930;52.412;13.554;2024-02-23T03:20:30;98440.88;;;9.42;59.25
81509;BME280;70930;52.412;13.554;2024-02-23T03:22:56;98449.53;;;9.49;59.22
81509;BME280;70930;52.412;13.554;2024-02-23T03:25:21;98449.84;;;9.41;59.29
81509;BME280;70930;52.412;13.554;2024-02-23T03:27:46;98451.53;;;9.35;59.57
81509;BME280;70930;52.412;13.554;2024-02-23T03:30:12;98460.66;;;9.39;58.89
81509;BME280;70930;52.412;13.554;2024-02-23T03:32:37;98458.56;;;9.29;59.39
81509;BME280;70930;52.412;13.554;2024-02-23T03:35:05;98472.72;;;9.35;59.47
81509;BME280;70930;52.412;13.554;2024-02-23T03:37:30;98476.84;;;9.31;58.82
81509;BME280;70930;52.412;13.554;2024-02-23T03:39:56;98484.59;;;9.32;60.19
81509;BME280;70930;52.412;13.554;2024-02-23T03:42:21;98489.53;;;9.29;59.73
81509;BME280;70930;52.412;13.554;2024-02-23T03:44:46;98483.06;;;9.25;60.53
81509;BME280;70930;52.412;13.554;2024-02-23T03:47:12;98502.41;;;9.25;60.72
81509;BME280;70930;52.412;13.554;2024-02-23T03:49:38;98483.19;;;9.12;61.10
81509;BME280;70930;52.412;13.554;2024-02-23T03:52:04;98503.00;;;9.09;60.88
81509;BME280;70930;52.412;13.554;2024-02-23T03:54:30;98496.28;;;9.06;60.69
81509;BME280;70930;52.412;13.554;2024-02-23T03:56:56;98507.31;;;9.03;60.53
81509;BME280;70930;52.412;13.554;2024-02-23T03:59:22;98519.38;;;8.99;61.64
81509;BME280;70930;52.412;13.554;2024-02-23T04:01:47;98522.91;;;8.93;62.24
81509;BME280;70930;52.412;13.554;2024-02-23T04:04:12;98514.44;;;8.84;61.34
81509;BME280;70930;52.412;13.554;2024-02-23T04:06:37;98520.16;;;8.81;60.40
81509;BME280;70930;52.412;13.554;2024-02-23T04:09:03;98532.31;;;8.89;60.52
81509;BME280;70930;52.412;13.554;2024-02-23T04:11:34;98547.59;;;8.87;60.47
81509;BME280;70930;52.412;13.554;2024-02-23T04:13:59;98552.31;;;8.85;60.55
81509;BME280;70930;52.412;13.554;2024-02-23T04:16:26;98569.41;;;8.82;60.89
81509;BME280;70930;52.412;13.554;2024-02-23T04:18:52;98557.25;;;8.75;60.64
81509;BME280;70930;52.412;13.554;2024-02-23T04:21:17;98571.53;;;8.74;60.09
81509;BME280;70930;52.412;13.554;2024-02-23T04:23:43;98580.53;;;8.66;60.11
81509;BME280;70930;52.412;13.554;2024-02-23T04:26:08;98604.13;;;8.68;59.39
81509;BME280;70930;52.412;13.554;2024-02-23T04:28:34;98607.59;;;8.68;60.31
81509;BME280;70930;52.412;13.554;2024-02-23T04:31:02;98600.72;;;8.60;59.86
81509;BME280;70930;52.412;13.554;2024-02-23T04:33:28;98613.31;;;8.65;58.71
81509;BME280;70930;52.412;13.554;2024-02-23T04:35:53;98633.50;;;8.59;59.42
81509;BME280;70930;52.412;13.554;2024-02-23T04:38:18;98635.97;;;8.54;59.75
81509;BME280;70930;52.412;13.554;2024-02-23T04:40:44;98640.63;;;8.59;58.92
81509;BME280;70930;52.412;13.554;2024-02-23T04:43:09;98647.38;;;8.55;59.41
81509;BME280;70930;52.412;13.554;2024-02-23T04:45:34;98648.00;;;8.50;59.30
81509;BME280;70930;52.412;13.554;2024-02-23T04:48:00;98664.94;;;8.43;60.13
81509;BME280;70930;52.412;13.554;2024-02-23T04:50:26;98663.31;;;8.42;59.27
81509;BME280;70930;52.412;13.554;2024-02-23T04:52:52;98680.41;;;8.32;59.12
81509;BME280;70930;52.412;13.554;2024-02-23T04:55:17;98686.34;;;8.28;60.08
81509;BME280;70930;52.412;13.554;2024-02-23T04:57:42;98690.81;;;8.27;59.57
81509;BME280;70930;52.412;13.554;2024-02-23T05:00:08;98701.47;;;8.14;59.88
81509;BME280;70930;52.412;13.554;2024-02-23T05:02:33;98705.94;;;8.14;60.28
81509;BME280;70930;52.412;13.554;2024-02-23T05:05:03;98705.72;;;8.15;58.74
81509;BME280;70930;52.412;13.554;2024-02-23T05:07:32;98707.16;;;8.11;58.85
81509;BME280;70930;52.412;13.554;2024-02-23T05:09:58;98718.75;;;8.10;59.30
81509;BME280;70930;52.412;13.554;2024-02-23T05:12:23;98725.50;;;7.99;58.55
81509;BME280;70930;52.412;13.554;2024-02-23T05:14:48;98717.56;;;7.99;58.96
81509;BME280;70930;52.412;13.554;2024-02-23T05:17:14;98724.69;;;7.99;58.06
81509;BME280;70930;52.412;13.554;2024-02-23T05:19:39;98733.84;;;7.96;58.47
81509;BME280;70930;52.412;13.554;2024-02-23T05:22:04;98714.31;;;7.97;58.53
81509;BME280;70930;52.412;13.554;2024-02-23T05:24:30;98732.81;;;7.97;58.56
81509;BME280;70930;52.412;13.554;2024-02-23T05:26:55;98745.44;;;7.82;59.45
81509;BME280;70930;52.412;13.554;2024-02-23T05:29:23;98743.19;;;7.85;58.45
81509;BME280;70930;52.412;13.554;2024-02-23T05:31:52;98768.22;;;7.83;59.81
81509;BME280;70930;52.412;13.554;2024-02-23T05:34:17;98777.97;;;7.82;59.80
81509;BME280;70930;52.412;13.554;2024-02-23T05:36:46;98783.88;;;7.71;58.91
81509;BME280;70930;52.412;13.554;2024-02-23T05:39:15;98791.81;;;7.71;59.28
81509;BME280;70930;52.412;13.554;2024-02-23T05:41:41;98809.06;;;7.74;59.45
81509;BME280;70930;52.412;13.554;2024-02-23T05:44:07;98818.84;;;7.67;60.58
81509;BME280;70930;52.412;13.554;2024-02-23T05:46:33;98822.28;;;7.60;60.50
81509;BME280;70930;52.412;13.554;2024-02-23T05:48:59;98830.59;;;7.57;61.35
81509;BME280;70930;52.412;13.554;2024-02-23T05:51:24;98839.34;;;7.45;61.17
81509;BME280;70930;52.412;13.554;2024-02-23T05:53:49;98834.66;;;7.40;60.35
81509;BME280;70930;52.412;13.554;2024-02-23T05:56:15;98844.84;;;7.43;59.77
81509;BME280;70930;52.412;13.554;2024-02-23T05:58:40;98851.53;;;7.39;59.82
81509;BME280;70930;52.412;13.554;2024-02-23T06:01:06;98845.63;;;7.37;59.74
81509;BME280;70930;52.412;13.554;2024-02-23T06:03:32;98851.31;;;7.27;59.60
81509;BME280;70930;52.412;13.554;2024-02-23T06:05:58;98861.84;;;7.34;59.24
81509;BME280;70930;52.412;13.554;2024-02-23T06:08:23;98874.41;;;7.19;59.55
81509;BME280;70930;52.412;13.554;2024-02-23T06:10:48;98881.72;;;7.17;59.67
81509;BME280;70930;52.412;13.554;2024-02-23T06:13:13;98877.25;;;7.17;58.21
81509;BME280;70930;52.412;13.554;2024-02-23T06:15:39;98887.59;;;7.19;58.83
81509;BME280;70930;52.412;13.554;2024-02-23T06:18:05;98903.66;;;7.17;57.60
81509;BME280;70930;52.412;13.554;2024-02-23T06:20:30;98898.94;;;7.06;58.60
81509;BME280;70930;52.412;13.554;2024-02-23T06:22:56;98914.78;;;7.06;57.00
81509;BME280;70930;52.412;13.554;2024-02-23T06:25:21;98934.31;;;7.11;58.07
81509;BME280;70930;52.412;13.554;2024-02-23T06:27:46;98936.09;;;7.11;58.68
81509;BME280;70930;52.412;13.554;2024-02-23T06:30:12;98937.34;;;7.08;57.70
81509;BME280;70930;52.412;13.554;2024-02-23T06:32:37;98934.31;;;7.11;58.61
81509;BME280;70930;52.412;13.554;2024-02-23T06:35:03;98942.06;;;7.20;58.61
81509;BME280;70930;52.412;13.554;2024-02-23T06:37:28;98950.38;;;7.17;59.00
81509;BME280;70930;52.412;13.554;2024-02-23T06:39:54;98961.09;;;7.15;59.21
81509;BME280;70930;52.412;13.554;2024-02-23T06:42:22;98971.66;;;7.15;58.89
81509;BME280;70930;52.412;13.554;2024-02-23T06:44:48;98963.34;;;7.18;59.81
81509;BME280;70930;52.412;13.554;2024-02-23T06:47:13;98967.78;;;7.11;59.66
81509;BME280;70930;52.412;13.554;2024-02-23T06:49:42;98969.84;;;7.16;59.36
81509;BME280;70930;52.412;13.554;2024-02-23T06:52:08;98982.03;;;7.17;60.14
81509;BME280;70930;52.412;13.554;2024-02-23T06:54:34;98988.03;;;6.97;60.30
81509;BME280;70930;52.412;13.554;2024-02-23T06:56:59;98981.94;;;6.97;61.66
81509;BME280;70930;52.412;13.554;2024-02-23T06:59:25;98988.50;;;7.07;61.01
81509;BME280;70930;52.412;13.554;2024-02-23T07:01:51;99010.09;;;6.89;61.13
81509;BME280;70930;52.412;13.554;2024-02-23T07:04:17;99009.63;;;7.14;60.63
81509;BME280;70930;52.412;13.554;2024-02-23T07:06:43;99008.88;;;7.20;61.24
81509;BME280;70930;52.412;13.554;2024-02-23T07:09:08;99000.72;;;7.22;60.51
81509;BME280;70930;52.412;13.554;2024-02-23T07:11:34;99027.59;;;7.32;60.54
81509;BME280;70930;52.412;13.554;2024-02-23T07:13:59;99037.19;;;7.46;61.72
81509;BME280;70930;52.412;13.554;2024-02-23T07:16:25;99034.75;;;7.45;61.36
81509;BME280;70930;52.412;13.554;2024-02-23T07:18:50;99036.41;;;7.52;60.94
81509;BME280;70930;52.412;13.554;2024-02-23T07:21:19;99030.56;;;7.63;60.95
81509;BME280;70930;52.412;13.554;2024-02-23T07:23:44;99021.66;;;7.71;61.76
81509;BME280;70930;52.412;13.554;2024-02-23T07:26:09;99027.78;;;7.78;61.04
81509;BME280;70930;52.412;13.554;2024-02-23T07:28:35;99039.75;;;7.81;61.00
81509;BME280;70930;52.412;13.554;2024-02-23T07:31:00;99037.09;;;7.68;61.81
81509;BME280;70930;52.412;13.554;2024-02-23T07:33:25;99038.97;;;7.94;60.91
81509;BME280;70930;52.412;13.554;2024-02-23T07:35:51;99030.47;;;7.98;61.40
81509;BME280;70930;52.412;13.554;2024-02-23T07:38:16;99039.59;;;7.96;61.01
81509;BME280;70930;52.412;13.554;2024-02-23T07:40:43;99039.22;;;7.99;62.18
81509;BME280;70930;52.412;13.554;2024-02-23T07:43:09;99042.47;;;7.94;60.97
81509;BME280;70930;52.412;13.554;2024-02-23T07:45:36;99044.91;;;7.96;61.70
81509;BME280;70930;52.412;13.554;2024-02-23T07:48:02;99039.41;;;7.97;61.69
81509;BME280;70930;52.412;13.554;2024-02-23T07:50:27;99054.19;;;7.72;62.09
81509;BME280;70930;52.412;13.554;2024-02-23T07:52:53;99056.50;;;7.95;61.99
81509;BME280;70930;52.412;13.554;2024-02-23T07:55:18;99061.53;;;7.83;63.24
81509;BME280;70930;52.412;13.554;2024-02-23T07:57:44;99069.00;;;7.73;62.22
81509;BME280;70930;52.412;13.554;2024-02-23T08:00:09;99081.78;;;7.62;63.12
81509;BME280;70930;52.412;13.554;2024-02-23T08:02:35;99102.75;;;7.77;63.22
81509;BME280;70930;52.412;13.554;2024-02-23T08:05:01;99092.56;;;7.68;63.47
81509;BME280;70930;52.412;13.554;2024-02-23T08:07:27;99088.94;;;7.82;62.90
81509;BME280;70930;52.412;13.554;2024-02-23T08:09:53;99105.09;;;8.00;61.68
81509;BME280;70930;52.412;13.554;2024-02-23T08:12:19;99106.53;;;8.09;60.44
81509;BME280;70930;52.412;13.554;2024-02-23T08:14:44;99113.22;;;8.05;59.45
81509;BME280;70930;52.412;13.554;2024-02-23T08:17:11;99106.72;;;7.95;59.65
81509;BME280;70930;52.412;13.554;2024-02-23T08:19:37;99114.69;;;8.15;60.42
81509;BME280;70930;52.412;13.554;2024-02-23T08:22:02;99126.28;;;8.20;59.45
81509;BME280;70930;52.412;13.554;2024-02-23T08:24:27;99125.47;;;8.20;60.52
81509;BME280;70930;52.412;13.554;2024-02-23T08:26:53;99129.78;;;8.27;60.62
81509;BME280;70930;52.412;13.554;2024-02-23T08:29:19;99141.31;;;8.06;60.30
81509;BME280;70930;52.412;13.554;2024-02-23T08:31:44;99146.19;;;8.09;60.29
81509;BME280;70930;52.412;13.554;2024-02-23T08:34:10;99154.34;;;8.21;60.46
81509;BME280;70930;52.412;13.554;2024-02-23T08:36:35;99154.59;;;8.33;60.80
81509;BME280;70930;52.412;13.554;2024-02-23T08:39:01;99155.63;;;8.25;59.86
81509;BME280;70930;52.412;13.554;2024-02-23T08:41:26;99143.78;;;8.15;59.48
81509;BME280;70930;52.412;13.554;2024-02-23T08:43:52;99143.84;;;8.34;60.43
81509;BME280;70930;52.412;13.554;2024-02-23T08:46:17;99140.63;;;8.39;59.84
81509;BME280;70930;52.412;13.554;2024-02-23T08:48:43;99142.69;;;8.50;60.28
81509;BME280;70930;52.412;13.554;2024-02-23T08:51:09;99157.84;;;8.22;60.35
81509;BME280;70930;52.412;13.554;2024-02-23T08:53:34;99155.47;;;8.40;60.63
81509;BME280;70930;52.412;13.554;2024-02-23T08:55:59;99169.53;;;8.47;60.66
81509;BME280;70930;52.412;13.554;2024-02-23T08:58:25;99176.50;;;8.62;61.37
81509;BME280;70930;52.412;13.554;2024-02-23T09:00:51;99164.28;;;8.74;61.65
81509;BME280;70930;52.412;13.554;2024-02-23T09:03:16;99170.81;;;8.65;61.73
81509;BME280;70930;52.412;13.554;2024-02-23T09:05:42;99175.06;;;8.66;62.91
81509;BME280;70930;52.412;13.554;2024-02-23T09:08:07;99176.13;;;8.84;62.60
81509;BME280;70930;52.412;13.554;2024-02-23T09:10:32;99164.09;;;8.69;61.93
81509;BME280;70930;52.412;13.554;2024-02-23T09:12:58;99172.84;;;8.69;61.93
81509;BME280;70930;52.412;13.554;2024-02-23T09:15:23;99172.00;;;8.62;61.38
81509;BME280;70930;52.412;13.554;2024-02-23T09:17:48;99190.31;;;8.57;61.49
81509;BME280;70930;52.412;13.554;2024-02-23T09:20:15;99192.94;;;8.50;58.69
81509;BME280;70930;52.412;13.554;2024-02-23T09:22:41;99198.66;;;8.60;58.17
81509;BME280;70930;52.412;13.554;2024-02-23T09:25:07;99194.56;;;8.51;58.18
81509;BME280;70930;52.412;13.554;2024-02-23T09:27:33;99197.66;;;8.68;58.92
81509;BME280;70930;52.412;13.554;2024-02-23T09:30:01;99187.91;;;8.75;57.78
81509;BME280;70930;52.412;13.554;2024-02-23T09:32:27;99199.31;;;8.69;55.63
81509;BME280;70930;52.412;13.554;2024-02-23T09:34:52;99203.38;;;8.78;54.59
81509;BME280;70930;52.412;13.554;2024-02-23T09:37:18;99203.16;;;8.80;55.24
81509;BME280;70930;52.412;13.554;2024-02-23T09:39:43;99199.94;;;8.91;54.85
81509;BME280;70930;52.412;13.554;2024-02-23T09:42:10;99200.75;;;8.92;55.10
81509;BME280;70930;52.412;13.554;2024-02-23T09:44:36;99214.19;;;9.03;55.72
81509;BME280;70930;52.412;13.554;2024-02-23T09:47:05;99209.31;;;9.07;55.10
81509;BME280;70930;52.412;13.554;2024-02-23T09:49:39;99225.22;;;9.27;55.85
81509;BME280;70930;52.412;13.554;2024-02-23T09:52:08;99219.09;;;9.06;56.05
81509;BME280;70930;52.412;13.554;2024-02-23T09:54:37;99235.19;;;9.18;56.39
81509;BME280;70930;52.412;13.554;2024-02-23T09:57:06;99229.50;;;9.15;55.45
81509;BME280;70930;52.412;13.554;2024-02-23T09:59:34;99223.78;;;9.18;54.28
81509;BME280;70930;52.412;13.554;2024-02-23T10:01:59;99223.59;;;9.26;56.19
81509;BME280;70930;52.412;13.554;2024-02-23T10:04:27;99231.94;;;9.29;56.58
81509;BME280;70930;52.412;13.554;2024-02-23T10:06:54;99227.03;;;9.53;56.74
81509;BME280;70930;52.412;13.554;2024-02-23T10:09:19;99228.88;;;9.46;56.77
81509;BME280;70930;52.412;13.554;2024-02-23T10:11:52;99224.41;;;9.33;57.88
81509;BME280;70930;52.412;13.554;2024-02-23T10:14:17;99231.53;;;9.52;59.00
81509;BME280;70930;52.412;13.554;2024-02-23T10:16:43;99228.06;;;9.52;57.30
81509;BME280;70930;52.412;13.554;2024-02-23T10:19:08;99234.56;;;9.63;56.16
81509;BME280;70930;52.412;13.554;2024-02-23T10:21:33;99234.78;;;9.61;56.64
81509;BME280;70930;52.412;13.554;2024-02-23T10:23:59;99236.41;;;9.75;55.80
81509;BME280;70930;52.412;13.554;2024-02-23T10:26:24;99231.06;;;9.82;55.71
81509;BME280;70930;52.412;13.554;2024-02-23T10:28:51;99234.09;;;9.99;54.44
81509;BME280;70930;52.412;13.554;2024-02-23T10:31:17;99232.03;;;10.01;53.49
81509;BME280;70930;52.412;13.554;2024-02-23T10:33:44;99227.91;;;10.25;53.09
81509;BME280;70930;52.412;13.554;2024-02-23T10:36:15;99227.09;;;10.18;52.73
81509;BME280;70930;52.412;13.554;2024-02-23T10:38:51;99228.72;;;10.32;52.75
81509;BME280;70930;52.412;13.554;2024-02-23T10:41:26;99236.69;;;10.19;50.83
81509;BME280;70930;52.412;13.554;2024-02-23T10:43:57;99244.66;;;10.19;51.33
81509;BME280;70930;52.412;13.554;2024-02-23T10:46:27;99245.03;;;10.29;50.42
81509;BME280;70930;52.412;13.554;2024-02-23T10:48:53;99259.28;;;10.41;49.34
81509;BME280;70930;52.412;13.554;2024-02-23T10:51:23;99242.84;;;10.06;49.46
81509;BME280;70930;52.412;13.554;2024-02-23T10:53:52;99246.97;;;9.89;49.64
81509;BME280;70930;52.412;13.554;2024-02-23T10:56:20;99254.69;;;9.97;49.08
81509;BME280;70930;52.412;13.554;2024-02-23T10:58:50;99248.00;;;9.94;48.81
81509;BME280;70930;52.412;13.554;2024-02-23T11:01:16;99253.25;;;10.01;49.15
81509;BME280;70930;52.412;13.554;2024-02-23T11:03:50;99254.88;;;10.08;49.06
81509;BME280;70930;52.412;13.554;2024-02-23T11:06:16;99265.03;;;10.31;48.76
81509;BME280;70930;52.412;13.554;2024-02-23T11:08:47;99250.66;;;10.52;47.98
81509;BME280;70930;52.412;13.554;2024-02-23T11:11:16;99259.75;;;10.25;46.32
81509;BME280;70930;52.412;13.554;2024-02-23T11:13:44;99251.38;;;10.28;46.45
81509;BME280;70930;52.412;13.554;2024-02-23T11:16:20;99257.63;;;10.53;47.55
81509;BME280;70930;52.412;13.554;2024-02-23T11:18:50;99251.91;;;10.88;47.00
81509;BME280;70930;52.412;13.554;2024-02-23T11:21:36;99245.19;;;10.86;45.89
81509;BME280;70930;52.412;13.554;2024-02-23T11:24:03;99269.00;;;10.61;47.06
81509;BME280;70930;52.412;13.554;2024-02-23T11:26:29;99254.53;;;10.56;47.16
81509;BME280;70930;52.412;13.554;2024-02-23T11:28:55;99260.06;;;10.55;47.33
81509;BME280;70930;52.412;13.554;2024-02-23T11:31:24;99266.50;;;10.72;46.72
81509;BME280;70930;52.412;13.554;2024-02-23T11:33:53;99264.75;;;10.91;47.06
81509;BME280;70930;52.412;13.554;2024-02-23T11:38:58;99252.91;;;10.94;46.08
81509;BME280;70930;52.412;13.554;2024-02-23T11:41:30;99265.31;;;11.31;46.84
81509;BME280;70930;52.412;13.554;2024-02-23T11:44:04;99262.59;;;11.13;46.01
81509;BME280;70930;52.412;13.554;2024-02-23T11:46:37;99254.38;;;10.45;46.54
81509;BME280;70930;52.412;13.554;2024-02-23T11:49:07;99255.97;;;10.52;47.36
81509;BME280;70930;52.412;13.554;2024-02-23T11:51:33;99275.56;;;10.58;47.39
81509;BME280;70930;52.412;13.554;2024-02-23T11:54:03;99273.38;;;10.42;47.08
81509;BME280;70930;52.412;13.554;2024-02-23T11:56:31;99283.16;;;10.41;47.13
81509;BME280;70930;52.412;13.554;2024-02-23T11:58:57;99292.38;;;10.39;48.59
81509;BME280;70930;52.412;13.554;2024-02-23T12:01:23;99301.97;;;10.40;47.75
81509;BME280;70930;52.412;13.554;2024-02-23T12:03:51;99276.06;;;10.28;47.45
81509;BME280;70930;52.412;13.554;2024-02-23T12:06:27;99285.41;;;10.44;47.97
81509;BME280;70930;52.412;13.554;2024-02-23T12:08:59;99291.97;;;10.42;47.59
81509;BME280;70930;52.412;13.554;2024-02-23T12:11:28;99294.94;;;10.65;48.48
81509;BME280;70930;52.412;13.554;2024-02-23T12:13:55;99294.34;;;10.56;48.18
81509;BME280;70930;52.412;13.554;2024-02-23T12:16:21;99292.78;;;10.87;48.57
81509;BME280;70930;52.412;13.554;2024-02-23T12:18:55;99292.78;;;10.80;47.43
81509;BME280;70930;52.412;13.554;2024-02-23T12:21:23;99304.75;;;10.58;47.54
81509;BME280;70930;52.412;13.554;2024-02-23T12:23:50;99298.66;;;10.51;46.95
81509;BME280;70930;52.412;13.554;2024-02-23T12:26:19;99303.72;;;10.59;48.08
81509;BME280;70930;52.412;13.554;2024-02-23T12:31:27;99308.47;;;10.50;48.62
81509;BME280;70930;52.412;13.554;2024-02-23T12:33:53;99300.69;;;10.55;47.67
81509;BME280;70930;52.412;13.554;2024-02-23T12:36:22;99313.34;;;10.53;47.78
81509;BME280;70930;52.412;13.554;2024-02-23T12:38:52;99327.69;;;10.13;48.51
81509;BME280;70930;52.412;13.554;2024-02-23T12:41:21;99327.47;;;10.41;49.32
81509;BME280;70930;52.412;13.554;2024-02-23T12:43:47;99328.31;;;10.28;49.05
81509;BME280;70930;52.412;13.554;2024-02-23T12:46:13;99330.16;;;10.07;49.15
81509;BME280;70930;52.412;13.554;2024-02-23T12:48:42;99329.53;;;10.19;47.76
81509;BME280;70930;52.412;13.554;2024-02-23T12:51:11;99338.94;;;10.35;49.00
81509;BME280;70930;52.412;13.554;2024-02-23T12:53:41;99338.13;;;10.34;50.22
81509;BME280;70930;52.412;13.554;2024-02-23T12:56:12;99347.25;;;10.51;49.24
81509;BME280;70930;52.412;13.554;2024-02-23T12:58:42;99342.81;;;10.32;49.29